Strykersville, NY (14145)

2:59 AM EDT on April 28, 2015 (GMT -0400)
Fish Hill Farm | | Change Station
CLOSE
Current Station
Personal Weather Station
Location: South Wales, NY
Elevation: 1414 ft
Nearby Weather Stations

Elev 1414 ft 42.70 °N, 78.49 °W | Updated 2 minutes ago

Mostly Cloudy
Mostly Cloudy
37.4 °F
Feels Like 37 °F
N
0.0
Wind Variable Wind from SE
Gusts 5.0 mph

Today
High -- | Low -- °F
--% Chance of Precip.
Yesterday
High -- | Low -- °F
Precip. -- in
6:12 AM 8:10 PM
Waxing Gibbous, 71% visible
Pressure 30.01 in
Visibility 10.0 miles
Clouds Few 5000 ft
Few 8500 ft
Windchill 37 °F
Dew Point 35 °F
Humidity 90%
Rainfall in
Snow Depth Not available.
UV 0.0 out of 12
Pollen 8.60 out of 12
Air Quality Not available.
Flu Activity Widespread
METAR KBUF 280554Z 24003KT 10SM FEW050 FEW085 03/02 A2999 RMK AO2 SLP160 T00330017 10050 20033 53004

More Conditions Fewer Conditions

Pressure 30.01 in
Visibility 10.0 miles
Clouds Few 5000 ft
Few 8500 ft
Windchill 37 °F
Dew Point 35 °F
Humidity 90%
Rainfall in
Snow Depth Not available.
UV 0.0 out of 12
Pollen 8.60 out of 12
Air Quality Not available.
Flu Activity Widespread
METAR KBUF 280554Z 24003KT 10SM FEW050 FEW085 03/02 A2999 RMK AO2 SLP160 T00330017 10050 20033 53004

More Conditions Fewer Conditions

10-Day Weather Forecast

Almanac

Astronomy

Apr. 28, 2015 Rise Set
Actual Time
Civil Twilight
Nautical Twilight
Astronomical Twilight
Moon
Length of Visible Light
Length of Day
Tomorrow will be .
, % of the Moon is Illuminated

Today's Extremes

State Highs State Lows

Community

WunderPhotos

Upload Photos

1,817,591 photos uploaded!

WunderBlogs® & News

Nearby

Air Quality

  Air Quality AQ Index Pollutant
Not available.

Snow Depth

Station Depth Elevation

Earthquake Activity

City Distance Mag. Time & Date
Minimum magnitude displayed is 2.5.

Coastal Water Temperatures

Place Temperature

Stations

Nearby Weather Stations

Station Location Temp. Windchill Dew Point Humidity Wind Precip. Elev Updated Type